sensor_id;sensor_type;location;lat;lon;timestamp;P1;durP1;ratioP1;P2;durP2;ratioP2
79644;SDS011;69117;47.148;18.954;2023-06-10T00:01:57;28.63;;;14.27;;
79644;SDS011;69117;47.148;18.954;2023-06-10T00:04:59;30.40;;;12.45;;
79644;SDS011;69117;47.148;18.954;2023-06-10T00:08:01;30.02;;;14.38;;
79644;SDS011;69117;47.148;18.954;2023-06-10T00:11:08;31.90;;;14.32;;
79644;SDS011;69117;47.148;18.954;2023-06-10T00:14:10;37.15;;;15.60;;
79644;SDS011;69117;47.148;18.954;2023-06-10T00:17:11;32.92;;;15.98;;
79644;SDS011;69117;47.148;18.954;2023-06-10T00:20:13;31.95;;;14.60;;
79644;SDS011;69117;47.148;18.954;2023-06-10T00:23:14;38.53;;;15.95;;
79644;SDS011;69117;47.148;18.954;2023-06-10T00:26:16;43.80;;;16.73;;
79644;SDS011;69117;47.148;18.954;2023-06-10T00:29:18;39.95;;;17.42;;
79644;SDS011;69117;47.148;18.954;2023-06-10T00:32:20;41.90;;;16.98;;
79644;SDS011;69117;47.148;18.954;2023-06-10T00:35:21;40.20;;;17.38;;
79644;SDS011;69117;47.148;18.954;2023-06-10T00:38:23;42.88;;;16.30;;
79644;SDS011;69117;47.148;18.954;2023-06-10T00:41:25;40.72;;;16.02;;
79644;SDS011;69117;47.148;18.954;2023-06-10T00:44:30;40.97;;;16.05;;
79644;SDS011;69117;47.148;18.954;2023-06-10T00:47:32;33.72;;;14.27;;
79644;SDS011;69117;47.148;18.954;2023-06-10T00:50:33;34.25;;;14.50;;
79644;SDS011;69117;47.148;18.954;2023-06-10T00:53:39;28.00;;;12.88;;
79644;SDS011;69117;47.148;18.954;2023-06-10T00:56:42;29.02;;;12.90;;
79644;SDS011;69117;47.148;18.954;2023-06-10T00:59:46;29.85;;;12.82;;
79644;SDS011;69117;47.148;18.954;2023-06-10T01:02:49;32.05;;;12.73;;
79644;SDS011;69117;47.148;18.954;2023-06-10T01:05:57;32.88;;;12.68;;
79644;SDS011;69117;47.148;18.954;2023-06-10T01:09:12;27.40;;;11.75;;
79644;SDS011;69117;47.148;18.954;2023-06-10T01:15:39;22.35;;;9.95;;
79644;SDS011;69117;47.148;18.954;2023-06-10T01:18:41;19.38;;;8.95;;
79644;SDS011;69117;47.148;18.954;2023-06-10T01:21:43;21.40;;;8.75;;
79644;SDS011;69117;47.148;18.954;2023-06-10T01:24:50;18.20;;;9.40;;
79644;SDS011;69117;47.148;18.954;2023-06-10T01:27:51;21.45;;;9.35;;
79644;SDS011;69117;47.148;18.954;2023-06-10T01:34:10;19.20;;;8.65;;
79644;SDS011;69117;47.148;18.954;2023-06-10T01:37:15;19.80;;;9.23;;
79644;SDS011;69117;47.148;18.954;2023-06-10T01:40:19;21.95;;;7.95;;
79644;SDS011;69117;47.148;18.954;2023-06-10T01:43:21;19.35;;;8.02;;
79644;SDS011;69117;47.148;18.954;2023-06-10T01:46:23;19.50;;;8.35;;
79644;SDS011;69117;47.148;18.954;2023-06-10T01:49:25;19.02;;;8.00;;
79644;SDS011;69117;47.148;18.954;2023-06-10T01:52:27;21.45;;;8.68;;
79644;SDS011;69117;47.148;18.954;2023-06-10T01:55:29;17.73;;;7.93;;
79644;SDS011;69117;47.148;18.954;2023-06-10T01:58:31;18.80;;;8.50;;
79644;SDS011;69117;47.148;18.954;2023-06-10T02:01:33;20.20;;;8.15;;
79644;SDS011;69117;47.148;18.954;2023-06-10T02:04:35;18.42;;;8.63;;
79644;SDS011;69117;47.148;18.954;2023-06-10T02:07:36;18.25;;;8.90;;
79644;SDS011;69117;47.148;18.954;2023-06-10T02:10:39;20.75;;;8.38;;
79644;SDS011;69117;47.148;18.954;2023-06-10T02:13:41;17.95;;;7.75;;
79644;SDS011;69117;47.148;18.954;2023-06-10T02:16:43;17.55;;;7.50;;
79644;SDS011;69117;47.148;18.954;2023-06-10T02:19:48;16.73;;;7.57;;
79644;SDS011;69117;47.148;18.954;2023-06-10T02:22:53;18.42;;;8.48;;
79644;SDS011;69117;47.148;18.954;2023-06-10T02:25:55;18.23;;;8.10;;
79644;SDS011;69117;47.148;18.954;2023-06-10T02:28:57;14.25;;;7.93;;
79644;SDS011;69117;47.148;18.954;2023-06-10T02:31:58;21.55;;;8.00;;
79644;SDS011;69117;47.148;18.954;2023-06-10T02:35:00;18.52;;;8.65;;
79644;SDS011;69117;47.148;18.954;2023-06-10T02:38:02;19.70;;;9.40;;
79644;SDS011;69117;47.148;18.954;2023-06-10T02:41:05;18.85;;;8.55;;
79644;SDS011;69117;47.148;18.954;2023-06-10T02:44:06;17.02;;;7.82;;
79644;SDS011;69117;47.148;18.954;2023-06-10T02:47:08;22.52;;;8.20;;
79644;SDS011;69117;47.148;18.954;2023-06-10T02:50:10;18.95;;;8.63;;
79644;SDS011;69117;47.148;18.954;2023-06-10T02:53:11;27.08;;;9.23;;
79644;SDS011;69117;47.148;18.954;2023-06-10T02:56:15;20.00;;;8.75;;
79644;SDS011;69117;47.148;18.954;2023-06-10T02:59:18;22.98;;;8.85;;
79644;SDS011;69117;47.148;18.954;2023-06-10T03:02:20;25.17;;;10.32;;
79644;SDS011;69117;47.148;18.954;2023-06-10T03:05:22;20.77;;;9.75;;
79644;SDS011;69117;47.148;18.954;2023-06-10T03:08:24;15.15;;;7.93;;
79644;SDS011;69117;47.148;18.954;2023-06-10T03:11:26;18.95;;;8.43;;
79644;SDS011;69117;47.148;18.954;2023-06-10T03:14:28;16.63;;;8.10;;
79644;SDS011;69117;47.148;18.954;2023-06-10T03:17:29;22.30;;;9.77;;
79644;SDS011;69117;47.148;18.954;2023-06-10T03:20:31;18.13;;;7.72;;
79644;SDS011;69117;47.148;18.954;2023-06-10T03:23:33;21.67;;;9.00;;
79644;SDS011;69117;47.148;18.954;2023-06-10T03:26:34;20.42;;;8.48;;
79644;SDS011;69117;47.148;18.954;2023-06-10T03:29:36;17.55;;;8.27;;
79644;SDS011;69117;47.148;18.954;2023-06-10T03:32:39;22.25;;;8.77;;
79644;SDS011;69117;47.148;18.954;2023-06-10T03:35:42;21.33;;;8.57;;
79644;SDS011;69117;47.148;18.954;2023-06-10T03:38:44;19.27;;;9.02;;
79644;SDS011;69117;47.148;18.954;2023-06-10T03:41:46;18.73;;;9.30;;
79644;SDS011;69117;47.148;18.954;2023-06-10T03:44:47;31.98;;;11.25;;
79644;SDS011;69117;47.148;18.954;2023-06-10T03:47:49;19.10;;;8.82;;
79644;SDS011;69117;47.148;18.954;2023-06-10T03:50:51;19.00;;;8.93;;
79644;SDS011;69117;47.148;18.954;2023-06-10T03:53:53;18.38;;;9.30;;
79644;SDS011;69117;47.148;18.954;2023-06-10T03:56:55;18.38;;;8.13;;
79644;SDS011;69117;47.148;18.954;2023-06-10T03:59:57;20.63;;;9.45;;
79644;SDS011;69117;47.148;18.954;2023-06-10T04:02:59;22.40;;;10.88;;
79644;SDS011;69117;47.148;18.954;2023-06-10T04:06:01;23.20;;;10.68;;
79644;SDS011;69117;47.148;18.954;2023-06-10T04:09:03;26.08;;;11.45;;
79644;SDS011;69117;47.148;18.954;2023-06-10T04:12:06;26.88;;;13.38;;
79644;SDS011;69117;47.148;18.954;2023-06-10T04:15:10;26.27;;;11.75;;
79644;SDS011;69117;47.148;18.954;2023-06-10T04:18:12;19.90;;;9.25;;
79644;SDS011;69117;47.148;18.954;2023-06-10T04:21:14;19.98;;;8.55;;
79644;SDS011;69117;47.148;18.954;2023-06-10T04:24:15;16.33;;;9.38;;
79644;SDS011;69117;47.148;18.954;2023-06-10T04:27:18;20.40;;;9.77;;
79644;SDS011;69117;47.148;18.954;2023-06-10T04:30:20;22.92;;;10.02;;
79644;SDS011;69117;47.148;18.954;2023-06-10T04:33:22;19.95;;;9.07;;
79644;SDS011;69117;47.148;18.954;2023-06-10T04:36:23;22.77;;;9.65;;
79644;SDS011;69117;47.148;18.954;2023-06-10T04:39:25;18.65;;;9.55;;
79644;SDS011;69117;47.148;18.954;2023-06-10T04:42:27;19.05;;;8.93;;
79644;SDS011;69117;47.148;18.954;2023-06-10T04:45:28;18.00;;;8.93;;
79644;SDS011;69117;47.148;18.954;2023-06-10T04:48:31;19.85;;;10.30;;
79644;SDS011;69117;47.148;18.954;2023-06-10T04:51:33;21.00;;;10.15;;
79644;SDS011;69117;47.148;18.954;2023-06-10T04:54:35;23.20;;;10.55;;
79644;SDS011;69117;47.148;18.954;2023-06-10T04:57:37;25.17;;;10.18;;
79644;SDS011;69117;47.148;18.954;2023-06-10T05:00:38;23.08;;;11.30;;
79644;SDS011;69117;47.148;18.954;2023-06-10T05:03:40;25.98;;;11.02;;
79644;SDS011;69117;47.148;18.954;2023-06-10T05:06:42;23.83;;;10.23;;
79644;SDS011;69117;47.148;18.954;2023-06-10T05:09:43;26.42;;;10.93;;
79644;SDS011;69117;47.148;18.954;2023-06-10T05:12:46;22.10;;;11.55;;
79644;SDS011;69117;47.148;18.954;2023-06-10T05:15:47;22.77;;;10.65;;
79644;SDS011;69117;47.148;18.954;2023-06-10T05:18:49;16.98;;;8.85;;
79644;SDS011;69117;47.148;18.954;2023-06-10T05:21:52;18.25;;;9.77;;
79644;SDS011;69117;47.148;18.954;2023-06-10T05:24:53;15.55;;;8.68;;
79644;SDS011;69117;47.148;18.954;2023-06-10T05:27:55;14.55;;;8.48;;
79644;SDS011;69117;47.148;18.954;2023-06-10T05:30:57;14.60;;;9.13;;
79644;SDS011;69117;47.148;18.954;2023-06-10T05:33:58;18.13;;;8.43;;
79644;SDS011;69117;47.148;18.954;2023-06-10T05:37:00;15.35;;;8.48;;
79644;SDS011;69117;47.148;18.954;2023-06-10T05:40:02;15.55;;;8.50;;
79644;SDS011;69117;47.148;18.954;2023-06-10T05:43:05;8.57;;;5.97;;
79644;SDS011;69117;47.148;18.954;2023-06-10T05:46:07;10.35;;;7.03;;
79644;SDS011;69117;47.148;18.954;2023-06-10T05:49:08;9.98;;;5.97;;
79644;SDS011;69117;47.148;18.954;2023-06-10T05:52:10;10.30;;;6.70;;
79644;SDS011;69117;47.148;18.954;2023-06-10T05:55:12;9.55;;;6.32;;
79644;SDS011;69117;47.148;18.954;2023-06-10T05:58:13;9.40;;;6.25;;
79644;SDS011;69117;47.148;18.954;2023-06-10T06:01:15;8.38;;;5.50;;
79644;SDS011;69117;47.148;18.954;2023-06-10T06:04:17;7.90;;;6.15;;
79644;SDS011;69117;47.148;18.954;2023-06-10T06:07:19;9.07;;;5.30;;
79644;SDS011;69117;47.148;18.954;2023-06-10T06:10:22;8.18;;;4.60;;
79644;SDS011;69117;47.148;18.954;2023-06-10T06:13:23;8.95;;;4.78;;
79644;SDS011;69117;47.148;18.954;2023-06-10T06:16:25;8.57;;;5.30;;
79644;SDS011;69117;47.148;18.954;2023-06-10T06:19:27;7.75;;;5.63;;
79644;SDS011;69117;47.148;18.954;2023-06-10T06:22:28;6.25;;;4.97;;
79644;SDS011;69117;47.148;18.954;2023-06-10T06:25:30;5.85;;;4.47;;
79644;SDS011;69117;47.148;18.954;2023-06-10T06:28:32;5.00;;;3.92;;
79644;SDS011;69117;47.148;18.954;2023-06-10T06:31:34;6.55;;;3.53;;
79644;SDS011;69117;47.148;18.954;2023-06-10T06:34:35;6.68;;;4.13;;
79644;SDS011;69117;47.148;18.954;2023-06-10T06:37:37;8.00;;;3.67;;
79644;SDS011;69117;47.148;18.954;2023-06-10T06:40:39;5.05;;;4.07;;
79644;SDS011;69117;47.148;18.954;2023-06-10T06:43:40;4.22;;;3.50;;
79644;SDS011;69117;47.148;18.954;2023-06-10T06:46:43;5.22;;;3.60;;
79644;SDS011;69117;47.148;18.954;2023-06-10T06:49:48;4.85;;;3.58;;
79644;SDS011;69117;47.148;18.954;2023-06-10T06:52:50;5.85;;;3.60;;
79644;SDS011;69117;47.148;18.954;2023-06-10T06:55:51;7.00;;;3.47;;
79644;SDS011;69117;47.148;18.954;2023-06-10T06:58:53;5.38;;;3.58;;
79644;SDS011;69117;47.148;18.954;2023-06-10T07:01:58;8.90;;;3.70;;
79644;SDS011;69117;47.148;18.954;2023-06-10T07:05:02;3.72;;;3.17;;
79644;SDS011;69117;47.148;18.954;2023-06-10T07:08:04;4.82;;;3.13;;
79644;SDS011;69117;47.148;18.954;2023-06-10T07:11:06;2.45;;;2.25;;
79644;SDS011;69117;47.148;18.954;2023-06-10T07:14:08;3.97;;;3.33;;
79644;SDS011;69117;47.148;18.954;2023-06-10T07:17:10;4.88;;;3.15;;
79644;SDS011;69117;47.148;18.954;2023-06-10T07:20:12;4.30;;;3.22;;
79644;SDS011;69117;47.148;18.954;2023-06-10T07:23:14;6.78;;;2.97;;
79644;SDS011;69117;47.148;18.954;2023-06-10T07:26:16;3.83;;;2.78;;
79644;SDS011;69117;47.148;18.954;2023-06-10T07:29:17;3.95;;;3.55;;
79644;SDS011;69117;47.148;18.954;2023-06-10T07:32:19;3.10;;;2.80;;
79644;SDS011;69117;47.148;18.954;2023-06-10T07:35:25;5.18;;;3.30;;
79644;SDS011;69117;47.148;18.954;2023-06-10T07:38:26;3.65;;;2.25;;
79644;SDS011;69117;47.148;18.954;2023-06-10T07:41:28;3.83;;;2.17;;
79644;SDS011;69117;47.148;18.954;2023-06-10T07:44:30;2.88;;;2.50;;
79644;SDS011;69117;47.148;18.954;2023-06-10T07:47:32;3.67;;;2.63;;
79644;SDS011;69117;47.148;18.954;2023-06-10T07:50:35;3.33;;;2.60;;
79644;SDS011;69117;47.148;18.954;2023-06-10T07:53:37;3.38;;;2.65;;
79644;SDS011;69117;47.148;18.954;2023-06-10T07:56:39;5.45;;;2.58;;
79644;SDS011;69117;47.148;18.954;2023-06-10T07:59:40;5.60;;;3.65;;
79644;SDS011;69117;47.148;18.954;2023-06-10T08:02:42;4.38;;;3.60;;
79644;SDS011;69117;47.148;18.954;2023-06-10T08:05:44;5.18;;;3.20;;
79644;SDS011;69117;47.148;18.954;2023-06-10T08:08:45;4.15;;;3.55;;
79644;SDS011;69117;47.148;18.954;2023-06-10T08:11:47;4.50;;;3.95;;
79644;SDS011;69117;47.148;18.954;2023-06-10T08:14:49;8.32;;;3.22;;
79644;SDS011;69117;47.148;18.954;2023-06-10T08:17:51;3.70;;;3.22;;
79644;SDS011;69117;47.148;18.954;2023-06-10T08:20:53;3.63;;;3.00;;
79644;SDS011;69117;47.148;18.954;2023-06-10T08:23:55;4.07;;;3.08;;
79644;SDS011;69117;47.148;18.954;2023-06-10T08:26:57;4.95;;;3.10;;
79644;SDS011;69117;47.148;18.954;2023-06-10T08:29:59;4.85;;;3.30;;
79644;SDS011;69117;47.148;18.954;2023-06-10T08:33:02;5.40;;;3.00;;
79644;SDS011;69117;47.148;18.954;2023-06-10T08:36:03;3.88;;;3.10;;
79644;SDS011;69117;47.148;18.954;2023-06-10T08:39:05;7.32;;;3.35;;
79644;SDS011;69117;47.148;18.954;2023-06-10T08:45:18;2.75;;;2.00;;
79644;SDS011;69117;47.148;18.954;2023-06-10T08:48:20;4.35;;;3.33;;
79644;SDS011;69117;47.148;18.954;2023-06-10T08:51:22;4.65;;;3.13;;
79644;SDS011;69117;47.148;18.954;2023-06-10T08:54:30;3.20;;;2.90;;
79644;SDS011;69117;47.148;18.954;2023-06-10T08:57:36;4.00;;;2.97;;
79644;SDS011;69117;47.148;18.954;2023-06-10T09:00:38;3.63;;;3.03;;
79644;SDS011;69117;47.148;18.954;2023-06-10T09:03:40;4.90;;;3.58;;
79644;SDS011;69117;47.148;18.954;2023-06-10T09:06:43;5.95;;;3.35;;
79644;SDS011;69117;47.148;18.954;2023-06-10T09:09:45;4.82;;;3.13;;
79644;SDS011;69117;47.148;18.954;2023-06-10T09:12:47;6.95;;;3.42;;
79644;SDS011;69117;47.148;18.954;2023-06-10T09:15:49;2.90;;;2.17;;
79644;SDS011;69117;47.148;18.954;2023-06-10T09:18:52;2.88;;;2.40;;
79644;SDS011;69117;47.148;18.954;2023-06-10T09:21:56;4.55;;;2.75;;
79644;SDS011;69117;47.148;18.954;2023-06-10T09:25:02;4.40;;;2.63;;
79644;SDS011;69117;47.148;18.954;2023-06-10T09:28:15;4.40;;;2.58;;
79644;SDS011;69117;47.148;18.954;2023-06-10T09:31:17;6.75;;;3.00;;
79644;SDS011;69117;47.148;18.954;2023-06-10T09:34:20;3.97;;;3.58;;
79644;SDS011;69117;47.148;18.954;2023-06-10T09:37:27;2.83;;;2.38;;
79644;SDS011;69117;47.148;18.954;2023-06-10T09:40:29;4.30;;;3.38;;
79644;SDS011;69117;47.148;18.954;2023-06-10T09:43:43;3.95;;;2.85;;
79644;SDS011;69117;47.148;18.954;2023-06-10T09:46:47;3.70;;;3.35;;
79644;SDS011;69117;47.148;18.954;2023-06-10T09:49:50;5.80;;;3.13;;
79644;SDS011;69117;47.148;18.954;2023-06-10T09:52:56;5.57;;;3.50;;
79644;SDS011;69117;47.148;18.954;2023-06-10T09:55:57;4.82;;;4.07;;
79644;SDS011;69117;47.148;18.954;2023-06-10T09:58:59;6.65;;;4.53;;
79644;SDS011;69117;47.148;18.954;2023-06-10T10:02:00;6.72;;;4.13;;
79644;SDS011;69117;47.148;18.954;2023-06-10T10:05:03;6.47;;;4.53;;
79644;SDS011;69117;47.148;18.954;2023-06-10T10:08:08;8.40;;;4.85;;
79644;SDS011;69117;47.148;18.954;2023-06-10T10:11:10;7.28;;;5.00;;
79644;SDS011;69117;47.148;18.954;2023-06-10T10:14:13;7.32;;;5.40;;
79644;SDS011;69117;47.148;18.954;2023-06-10T10:17:17;7.40;;;5.18;;
79644;SDS011;69117;47.148;18.954;2023-06-10T10:20:24;8.15;;;5.10;;
79644;SDS011;69117;47.148;18.954;2023-06-10T10:23:38;5.70;;;4.82;;
79644;SDS011;69117;47.148;18.954;2023-06-10T10:26:46;6.72;;;4.93;;
79644;SDS011;69117;47.148;18.954;2023-06-10T10:29:50;7.70;;;5.85;;
79644;SDS011;69117;47.148;18.954;2023-06-10T10:32:56;8.00;;;6.10;;
79644;SDS011;69117;47.148;18.954;2023-06-10T10:36:08;8.35;;;5.82;;
79644;SDS011;69117;47.148;18.954;2023-06-10T10:39:10;6.88;;;5.85;;
79644;SDS011;69117;47.148;18.954;2023-06-10T10:42:13;6.38;;;4.70;;
79644;SDS011;69117;47.148;18.954;2023-06-10T10:45:16;4.53;;;3.50;;
79644;SDS011;69117;47.148;18.954;2023-06-10T10:48:17;4.90;;;3.55;;
79644;SDS011;69117;47.148;18.954;2023-06-10T10:51:19;4.43;;;3.83;;
79644;SDS011;69117;47.148;18.954;2023-06-10T10:54:27;6.43;;;4.05;;
79644;SDS011;69117;47.148;18.954;2023-06-10T10:57:31;5.97;;;4.00;;
79644;SDS011;69117;47.148;18.954;2023-06-10T11:03:35;7.20;;;4.90;;
79644;SDS011;69117;47.148;18.954;2023-06-10T11:06:53;8.70;;;5.70;;
79644;SDS011;69117;47.148;18.954;2023-06-10T11:13:08;13.32;;;8.23;;
79644;SDS011;69117;47.148;18.954;2023-06-10T11:16:11;14.77;;;9.35;;
79644;SDS011;69117;47.148;18.954;2023-06-10T11:19:37;16.08;;;10.40;;
79644;SDS011;69117;47.148;18.954;2023-06-10T11:23:01;16.42;;;10.80;;
79644;SDS011;69117;47.148;18.954;2023-06-10T11:29:10;13.88;;;9.18;;
79644;SDS011;69117;47.148;18.954;2023-06-10T11:32:11;15.98;;;10.05;;
79644;SDS011;69117;47.148;18.954;2023-06-10T11:35:13;15.45;;;9.30;;
79644;SDS011;69117;47.148;18.954;2023-06-10T11:38:15;14.55;;;9.02;;
79644;SDS011;69117;47.148;18.954;2023-06-10T11:41:18;11.68;;;8.20;;
79644;SDS011;69117;47.148;18.954;2023-06-10T11:44:20;12.52;;;8.98;;
79644;SDS011;69117;47.148;18.954;2023-06-10T11:47:21;11.30;;;8.32;;
79644;SDS011;69117;47.148;18.954;2023-06-10T11:50:32;10.38;;;7.97;;
79644;SDS011;69117;47.148;18.954;2023-06-10T11:53:35;8.05;;;6.68;;
79644;SDS011;69117;47.148;18.954;2023-06-10T11:56:36;3.45;;;2.72;;
79644;SDS011;69117;47.148;18.954;2023-06-10T11:59:38;3.47;;;3.17;;
79644;SDS011;69117;47.148;18.954;2023-06-10T12:02:41;7.50;;;3.58;;
79644;SDS011;69117;47.148;18.954;2023-06-10T12:09:15;4.40;;;3.45;;
79644;SDS011;69117;47.148;18.954;2023-06-10T12:12:26;3.78;;;3.33;;
79644;SDS011;69117;47.148;18.954;2023-06-10T12:15:28;5.00;;;3.15;;
79644;SDS011;69117;47.148;18.954;2023-06-10T12:18:30;3.78;;;2.50;;
79644;SDS011;69117;47.148;18.954;2023-06-10T12:21:32;4.45;;;3.55;;
79644;SDS011;69117;47.148;18.954;2023-06-10T12:24:43;5.15;;;3.15;;
79644;SDS011;69117;47.148;18.954;2023-06-10T12:27:52;4.22;;;2.72;;
79644;SDS011;69117;47.148;18.954;2023-06-10T12:31:05;3.63;;;2.92;;
79644;SDS011;69117;47.148;18.954;2023-06-10T12:34:09;4.32;;;3.25;;
79644;SDS011;69117;47.148;18.954;2023-06-10T12:37:11;4.97;;;3.10;;
79644;SDS011;69117;47.148;18.954;2023-06-10T12:40:17;4.70;;;3.70;;
79644;SDS011;69117;47.148;18.954;2023-06-10T12:43:20;6.13;;;4.20;;
79644;SDS011;69117;47.148;18.954;2023-06-10T12:46:22;5.45;;;4.30;;
79644;SDS011;69117;47.148;18.954;2023-06-10T12:49:24;6.75;;;4.65;;
79644;SDS011;69117;47.148;18.954;2023-06-10T12:52:27;5.85;;;4.72;;
79644;SDS011;69117;47.148;18.954;2023-06-10T12:55:29;7.00;;;4.80;;
79644;SDS011;69117;47.148;18.954;2023-06-10T12:58:30;5.15;;;4.57;;
79644;SDS011;69117;47.148;18.954;2023-06-10T13:01:32;6.82;;;5.07;;
79644;SDS011;69117;47.148;18.954;2023-06-10T13:04:35;6.38;;;4.60;;
79644;SDS011;69117;47.148;18.954;2023-06-10T13:07:37;7.55;;;4.88;;
79644;SDS011;69117;47.148;18.954;2023-06-10T13:10:39;5.63;;;5.05;;
79644;SDS011;69117;47.148;18.954;2023-06-10T13:13:40;5.95;;;5.25;;
79644;SDS011;69117;47.148;18.954;2023-06-10T13:16:42;7.05;;;6.22;;
79644;SDS011;69117;47.148;18.954;2023-06-10T13:19:46;6.82;;;6.07;;
79644;SDS011;69117;47.148;18.954;2023-06-10T13:22:47;7.40;;;6.22;;
79644;SDS011;69117;47.148;18.954;2023-06-10T13:25:50;7.25;;;6.25;;
79644;SDS011;69117;47.148;18.954;2023-06-10T13:28:52;6.10;;;5.35;;
79644;SDS011;69117;47.148;18.954;2023-06-10T13:31:54;5.70;;;5.10;;
79644;SDS011;69117;47.148;18.954;2023-06-10T13:34:55;5.93;;;5.05;;
79644;SDS011;69117;47.148;18.954;2023-06-10T13:37:58;6.40;;;5.63;;
79644;SDS011;69117;47.148;18.954;2023-06-10T13:40:59;5.63;;;3.97;;
79644;SDS011;69117;47.148;18.954;2023-06-10T13:44:05;3.58;;;2.90;;
79644;SDS011;69117;47.148;18.954;2023-06-10T13:47:07;2.55;;;2.33;;
79644;SDS011;69117;47.148;18.954;2023-06-10T13:50:09;2.55;;;2.35;;
79644;SDS011;69117;47.148;18.954;2023-06-10T13:53:11;5.38;;;2.28;;
79644;SDS011;69117;47.148;18.954;2023-06-10T13:56:13;3.25;;;2.67;;
79644;SDS011;69117;47.148;18.954;2023-06-10T13:59:15;3.20;;;2.80;;
79644;SDS011;69117;47.148;18.954;2023-06-10T14:02:17;3.30;;;2.78;;
79644;SDS011;69117;47.148;18.954;2023-06-10T14:05:19;3.13;;;2.75;;
79644;SDS011;69117;47.148;18.954;2023-06-10T14:08:20;2.95;;;2.40;;
79644;SDS011;69117;47.148;18.954;2023-06-10T14:11:22;2.25;;;2.05;;
79644;SDS011;69117;47.148;18.954;2023-06-10T14:14:24;2.53;;;2.22;;
79644;SDS011;69117;47.148;18.954;2023-06-10T14:17:25;3.45;;;2.40;;
79644;SDS011;69117;47.148;18.954;2023-06-10T14:20:27;3.30;;;2.30;;
79644;SDS011;69117;47.148;18.954;2023-06-10T14:23:32;4.35;;;2.92;;
79644;SDS011;69117;47.148;18.954;2023-06-10T14:26:34;4.05;;;2.55;;
79644;SDS011;69117;47.148;18.954;2023-06-10T14:29:35;3.13;;;2.63;;
79644;SDS011;69117;47.148;18.954;2023-06-10T14:32:37;4.20;;;2.63;;
79644;SDS011;69117;47.148;18.954;2023-06-10T14:35:39;4.85;;;3.33;;
79644;SDS011;69117;47.148;18.954;2023-06-10T14:38:41;3.33;;;2.83;;
79644;SDS011;69117;47.148;18.954;2023-06-10T14:41:42;5.90;;;3.38;;
79644;SDS011;69117;47.148;18.954;2023-06-10T14:44:44;6.22;;;3.08;;
79644;SDS011;69117;47.148;18.954;2023-06-10T14:47:46;3.67;;;3.00;;
79644;SDS011;69117;47.148;18.954;2023-06-10T14:50:48;3.92;;;2.88;;
79644;SDS011;69117;47.148;18.954;2023-06-10T14:53:52;4.35;;;3.22;;
79644;SDS011;69117;47.148;18.954;2023-06-10T14:56:53;4.15;;;3.25;;
79644;SDS011;69117;47.148;18.954;2023-06-10T14:59:55;5.28;;;3.50;;
79644;SDS011;69117;47.148;18.954;2023-06-10T15:02:57;4.53;;;2.88;;
79644;SDS011;69117;47.148;18.954;2023-06-10T15:05:59;5.47;;;3.17;;
79644;SDS011;69117;47.148;18.954;2023-06-10T15:09:02;3.90;;;3.50;;
79644;SDS011;69117;47.148;18.954;2023-06-10T15:12:04;4.15;;;3.38;;
79644;SDS011;69117;47.148;18.954;2023-06-10T15:15:07;4.30;;;2.92;;
79644;SDS011;69117;47.148;18.954;2023-06-10T15:18:09;4.10;;;2.67;;
79644;SDS011;69117;47.148;18.954;2023-06-10T15:21:11;3.75;;;2.95;;
79644;SDS011;69117;47.148;18.954;2023-06-10T15:24:13;4.07;;;3.15;;
79644;SDS011;69117;47.148;18.954;2023-06-10T15:27:14;4.32;;;3.25;;
79644;SDS011;69117;47.148;18.954;2023-06-10T15:30:16;3.42;;;2.30;;
79644;SDS011;69117;47.148;18.954;2023-06-10T15:33:18;4.38;;;2.65;;
79644;SDS011;69117;47.148;18.954;2023-06-10T15:36:19;4.40;;;2.47;;
79644;SDS011;69117;47.148;18.954;2023-06-10T15:39:21;3.88;;;2.67;;
79644;SDS011;69117;47.148;18.954;2023-06-10T15:42:23;3.90;;;2.35;;
79644;SDS011;69117;47.148;18.954;2023-06-10T15:45:25;3.83;;;2.33;;
79644;SDS011;69117;47.148;18.954;2023-06-10T15:48:26;4.38;;;3.00;;
79644;SDS011;69117;47.148;18.954;2023-06-10T15:51:28;5.47;;;2.60;;
79644;SDS011;69117;47.148;18.954;2023-06-10T15:54:30;3.78;;;2.72;;
79644;SDS011;69117;47.148;18.954;2023-06-10T15:57:32;4.60;;;2.85;;
79644;SDS011;69117;47.148;18.954;2023-06-10T16:00:34;4.57;;;2.78;;
79644;SDS011;69117;47.148;18.954;2023-06-10T16:03:35;5.25;;;2.88;;
79644;SDS011;69117;47.148;18.954;2023-06-10T16:06:37;4.15;;;2.88;;
79644;SDS011;69117;47.148;18.954;2023-06-10T16:09:39;4.10;;;2.85;;
79644;SDS011;69117;47.148;18.954;2023-06-10T16:12:40;4.90;;;2.90;;
79644;SDS011;69117;47.148;18.954;2023-06-10T16:15:42;5.03;;;2.40;;
79644;SDS011;69117;47.148;18.954;2023-06-10T16:18:44;3.35;;;2.38;;
79644;SDS011;69117;47.148;18.954;2023-06-10T16:21:45;2.55;;;2.13;;
79644;SDS011;69117;47.148;18.954;2023-06-10T16:24:47;3.83;;;3.00;;
79644;SDS011;69117;47.148;18.954;2023-06-10T16:27:49;3.17;;;2.30;;
79644;SDS011;69117;47.148;18.954;2023-06-10T16:30:50;5.30;;;2.58;;
79644;SDS011;69117;47.148;18.954;2023-06-10T16:33:53;4.78;;;2.63;;
79644;SDS011;69117;47.148;18.954;2023-06-10T16:36:55;3.63;;;2.67;;
79644;SDS011;69117;47.148;18.954;2023-06-10T16:39:57;4.22;;;3.20;;
79644;SDS011;69117;47.148;18.954;2023-06-10T16:42:59;7.55;;;3.25;;
79644;SDS011;69117;47.148;18.954;2023-06-10T16:46:00;5.78;;;2.70;;
79644;SDS011;69117;47.148;18.954;2023-06-10T16:49:02;3.63;;;2.38;;
79644;SDS011;69117;47.148;18.954;2023-06-10T16:52:05;4.13;;;2.90;;
79644;SDS011;69117;47.148;18.954;2023-06-10T16:55:06;6.07;;;3.80;;
79644;SDS011;69117;47.148;18.954;2023-06-10T16:58:09;4.72;;;3.67;;
79644;SDS011;69117;47.148;18.954;2023-06-10T17:01:11;5.47;;;4.07;;
79644;SDS011;69117;47.148;18.954;2023-06-10T17:04:12;5.07;;;3.50;;
79644;SDS011;69117;47.148;18.954;2023-06-10T17:07:14;5.25;;;4.05;;
79644;SDS011;69117;47.148;18.954;2023-06-10T17:10:17;4.80;;;4.07;;
79644;SDS011;69117;47.148;18.954;2023-06-10T17:13:19;5.95;;;3.92;;
79644;SDS011;69117;47.148;18.954;2023-06-10T17:16:21;5.97;;;3.90;;
79644;SDS011;69117;47.148;18.954;2023-06-10T17:19:23;5.20;;;4.50;;
79644;SDS011;69117;47.148;18.954;2023-06-10T17:22:25;5.53;;;4.07;;
79644;SDS011;69117;47.148;18.954;2023-06-10T17:25:27;5.70;;;4.13;;
79644;SDS011;69117;47.148;18.954;2023-06-10T17:28:28;6.95;;;5.25;;
79644;SDS011;69117;47.148;18.954;2023-06-10T17:31:30;6.95;;;4.25;;
79644;SDS011;69117;47.148;18.954;2023-06-10T17:34:32;5.03;;;3.90;;
79644;SDS011;69117;47.148;18.954;2023-06-10T17:37:34;4.82;;;3.65;;
79644;SDS011;69117;47.148;18.954;2023-06-10T17:40:35;6.38;;;4.25;;
79644;SDS011;69117;47.148;18.954;2023-06-10T17:43:37;5.25;;;3.75;;
79644;SDS011;69117;47.148;18.954;2023-06-10T17:46:39;5.97;;;4.32;;
79644;SDS011;69117;47.148;18.954;2023-06-10T17:49:40;6.28;;;3.95;;
79644;SDS011;69117;47.148;18.954;2023-06-10T17:52:42;5.43;;;4.35;;
79644;SDS011;69117;47.148;18.954;2023-06-10T17:55:44;8.32;;;4.30;;
79644;SDS011;69117;47.148;18.954;2023-06-10T17:58:46;7.25;;;5.00;;
79644;SDS011;69117;47.148;18.954;2023-06-10T18:01:47;10.02;;;7.00;;
79644;SDS011;69117;47.148;18.954;2023-06-10T18:04:49;10.48;;;6.53;;
79644;SDS011;69117;47.148;18.954;2023-06-10T18:07:51;10.20;;;6.43;;
79644;SDS011;69117;47.148;18.954;2023-06-10T18:10:52;9.88;;;6.50;;
79644;SDS011;69117;47.148;18.954;2023-06-10T18:13:54;9.65;;;6.07;;
79644;SDS011;69117;47.148;18.954;2023-06-10T18:16:56;7.97;;;5.40;;
79644;SDS011;69117;47.148;18.954;2023-06-10T18:19:57;8.20;;;4.97;;